createdAt,value
2022-08-17T00:00:34.698Z,-25.6
2022-08-17T00:02:36.769Z,-25.6
2022-08-17T00:04:36.022Z,-25.6
2022-08-17T00:06:37.748Z,-25.9
2022-08-17T00:08:39.614Z,-25.8
2022-08-17T00:10:41.296Z,-25.7
2022-08-17T00:12:44.296Z,-25.7
2022-08-17T00:14:43.426Z,-25.5
2022-08-17T00:16:50.594Z,-25.9
2022-08-17T00:18:56.726Z,-25.6
2022-08-17T00:20:47.277Z,-25.8
2022-08-17T00:22:48.538Z,-25.6
2022-08-17T00:24:49.498Z,-25.8
2022-08-17T00:26:50.490Z,-25.4
2022-08-17T00:28:51.595Z,-25.8
2022-08-17T00:33:23.350Z,-25.5
2022-08-17T00:34:56.206Z,-25.4
2022-08-17T00:36:57.298Z,-25.3
2022-08-17T00:38:58.479Z,-25.9
2022-08-17T00:41:00.284Z,-25.5
2022-08-17T00:43:01.798Z,-25.6
2022-08-17T00:47:04.786Z,-25.7
2022-08-17T00:49:05.889Z,-25.7
2022-08-17T00:51:07.568Z,-25.6
2022-08-17T00:53:09.167Z,-25.9
2022-08-17T00:55:10.644Z,-25.8
2022-08-17T00:57:11.662Z,-25.3
2022-08-17T00:59:12.986Z,-25.7
2022-08-17T01:01:21.150Z,-25.6
2022-08-17T01:03:15.732Z,-25.5
2022-08-17T01:05:18.523Z,-25.5
2022-08-17T01:09:19.991Z,-25.7
2022-08-17T01:11:20.929Z,-25.6
2022-08-17T01:13:22.457Z,-25.4
2022-08-17T01:15:23.411Z,-25.7
2022-08-17T01:17:24.731Z,-25.5
2022-08-17T01:19:26.312Z,-25.8
2022-08-17T01:21:27.985Z,-25.6
2022-08-17T01:23:29.830Z,-25.5
2022-08-17T01:25:31.635Z,-25.8
2022-08-17T01:31:36.218Z,-25.5
2022-08-17T01:33:37.210Z,-25.5
2022-08-17T01:35:38.449Z,-25.7
2022-08-17T01:39:40.781Z,-25.8
2022-08-17T01:41:42.390Z,-25.7
2022-08-17T01:43:43.439Z,-25.6
2022-08-17T01:45:45.078Z,-25.9
2022-08-17T01:47:46.109Z,-25.6
2022-08-17T01:49:47.677Z,-25.8
2022-08-17T01:51:48.591Z,-25.5
2022-08-17T01:53:50.450Z,-25.8
2022-08-17T01:55:51.397Z,-25.4
2022-08-17T01:57:52.708Z,-25.9
2022-08-17T01:58:36.527Z,-25.5
2022-08-17T02:02:39.158Z,-25.6
2022-08-17T02:04:40.526Z,-25.6
2022-08-17T02:09:02.100Z,-25.6
2022-08-17T02:10:46.638Z,-25.5
2022-08-17T02:12:46.336Z,-25.6
2022-08-17T02:14:47.587Z,-25.8
2022-08-17T02:16:48.574Z,-25.6
2022-08-17T02:18:49.636Z,-25.6
2022-08-17T02:24:59.315Z,-25.5
2022-08-17T02:26:54.787Z,-25.8
2022-08-17T02:28:56.370Z,-25.5
2022-08-17T02:31:00.486Z,-25.6
2022-08-17T02:32:59.713Z,-25.4
2022-08-17T02:35:00.903Z,-26
2022-08-17T02:37:02.009Z,-25.8
2022-08-17T02:39:03.485Z,-25.8
2022-08-17T02:41:04.541Z,-25.6
2022-08-17T02:45:07.383Z,-25.8
2022-08-17T02:47:09.100Z,-25.4
2022-08-17T02:49:10.365Z,-26.1
2022-08-17T02:51:11.595Z,-25.6
2022-08-17T02:53:13.399Z,-25.6
2022-08-17T02:55:14.771Z,-25.6
2022-08-17T02:57:16.053Z,-26
2022-08-17T02:59:17.177Z,-25.6
2022-08-17T03:05:21.561Z,-25.6
2022-08-17T03:07:22.617Z,-25.6
2022-08-17T03:09:24.459Z,-25.6
2022-08-17T03:11:25.796Z,-25.6
2022-08-17T03:13:26.809Z,-25.6
2022-08-17T03:15:28.559Z,-25.6
2022-08-17T03:17:30.187Z,-25.7
2022-08-17T03:21:32.827Z,-25.5
2022-08-17T03:23:34.145Z,-25.6
2022-08-17T03:25:35.741Z,-25.7
2022-08-17T03:27:37.171Z,-25.7
2022-08-17T03:33:41.154Z,-25.4
2022-08-17T03:35:42.817Z,-25.7
2022-08-17T03:37:44.090Z,-25.5
2022-08-17T03:39:45.141Z,-25.5
2022-08-17T03:41:46.365Z,-25.6
2022-08-17T03:43:47.571Z,-25.5
2022-08-17T03:45:49.307Z,-25.7
2022-08-17T03:47:50.234Z,-25.6
2022-08-17T03:49:51.226Z,-25.7
2022-08-17T03:51:52.816Z,-25.7
2022-08-17T03:53:54.695Z,-25.8
2022-08-17T03:55:56.399Z,-25.6
2022-08-17T03:57:58.369Z,-25.5
2022-08-17T03:59:59.475Z,-25.7
2022-08-17T04:02:00.670Z,-25.6
2022-08-17T04:04:01.852Z,-25.6
2022-08-17T04:06:03.728Z,-25.6
2022-08-17T04:08:05.224Z,-25.5
2022-08-17T04:10:05.781Z,-25.8
2022-08-17T04:12:06.843Z,-25.7
2022-08-17T04:14:08.641Z,-25.9
2022-08-17T04:16:10.492Z,-25.6
2022-08-17T04:18:11.638Z,-25.5
2022-08-17T04:20:13.041Z,-25.6
2022-08-17T04:22:31.560Z,-25.8
2022-08-17T04:24:15.764Z,-25.9
2022-08-17T04:26:52.364Z,-25.6
2022-08-17T04:28:18.023Z,-25.7
2022-08-17T04:30:19.675Z,-25.9
2022-08-17T04:32:24.994Z,-25.8
2022-08-17T04:34:23.019Z,-25.9
2022-08-17T04:36:24.652Z,-25.7
2022-08-17T04:38:26.133Z,-25.6
2022-08-17T04:40:27.375Z,-26
2022-08-17T04:42:29.003Z,-25.6
2022-08-17T04:46:31.963Z,-25.6
2022-08-17T04:48:35.870Z,-25.8
2022-08-17T04:50:34.997Z,-25.9
2022-08-17T04:52:43.000Z,-25.8
2022-08-17T04:54:37.470Z,-25.4
2022-08-17T04:56:38.997Z,-25.6
2022-08-17T04:58:39.985Z,-25.7
2022-08-17T05:00:41.195Z,-25.6
2022-08-17T05:02:49.692Z,-25.6
2022-08-17T05:04:44.378Z,-25.9
2022-08-17T05:08:47.137Z,-25.7
2022-08-17T05:10:48.229Z,-25.7
2022-08-17T05:12:50.154Z,-25.7
2022-08-17T05:14:51.692Z,25.3
2022-08-17T05:16:53.358Z,-25.7
2022-08-17T05:18:54.957Z,-25.5
2022-08-17T05:20:55.904Z,-25.6
2022-08-17T05:22:57.760Z,-25.5
2022-08-17T05:24:59.360Z,-25.5
2022-08-17T05:31:03.450Z,-11.7
2022-08-17T05:33:04.504Z,-23.9
2022-08-17T05:35:06.230Z,-20.6
2022-08-17T05:37:07.884Z,-0.1
2022-08-17T05:39:09.260Z,13.9
2022-08-17T05:41:10.887Z,10.1
2022-08-17T05:43:12.264Z,-14.5
2022-08-17T05:45:13.757Z,6.4
2022-08-17T05:47:15.351Z,34.8
2022-08-17T05:51:17.955Z,38.8
2022-08-17T05:53:19.741Z,15.4
2022-08-17T05:55:21.509Z,31.1
2022-08-17T05:57:23.133Z,31.6
2022-08-17T06:01:26.341Z,63.6
2022-08-17T06:03:28.026Z,76.19
2022-08-17T06:05:29.855Z,75
2022-08-17T06:07:30.893Z,74.5
2022-08-17T06:11:33.190Z,73.6
2022-08-17T06:13:34.044Z,72.5
2022-08-17T06:15:34.845Z,72.1
2022-08-17T06:17:35.854Z,71.19
2022-08-17T06:21:38.175Z,69.5
2022-08-17T06:23:39.885Z,68.3
2022-08-17T06:25:40.979Z,68.19
2022-08-17T06:27:42.532Z,66.69
2022-08-17T06:31:45.691Z,65
2022-08-17T06:33:47.326Z,63.9
2022-08-17T06:35:48.561Z,62.6
2022-08-17T06:39:51.579Z,60.3
2022-08-17T06:43:54.424Z,56.9
2022-08-17T06:45:55.662Z,56
2022-08-17T06:47:56.591Z,54.5
2022-08-17T06:49:58.329Z,53.3
2022-08-17T06:51:59.843Z,51.2
2022-08-17T06:54:01.067Z,49
2022-08-17T06:56:02.078Z,46.6
2022-08-17T06:58:05.214Z,44.7
2022-08-17T07:00:04.706Z,42.4
2022-08-17T07:02:06.188Z,41.5
2022-08-17T07:04:11.709Z,40.4
2022-08-17T07:06:08.945Z,37.59
2022-08-17T07:08:09.918Z,37
2022-08-17T07:10:10.835Z,34.9
2022-08-17T07:12:11.685Z,33
2022-08-17T07:14:17.096Z,31.8
2022-08-17T07:16:14.748Z,30.5
2022-08-17T07:18:16.225Z,27.6
2022-08-17T07:20:17.452Z,26.7
2022-08-17T07:22:19.061Z,25.4
2022-08-17T07:24:26.073Z,23
2022-08-17T07:26:22.269Z,23
2022-08-17T07:28:23.813Z,21.5
2022-08-17T07:30:24.997Z,19.2
2022-08-17T07:32:25.912Z,18.7
2022-08-17T07:34:29.143Z,17.7
2022-08-17T07:36:30.171Z,16.29
2022-08-17T07:38:30.297Z,15
2022-08-17T07:40:31.822Z,14.4
2022-08-17T07:42:34.333Z,12.2
2022-08-17T07:44:34.447Z,11.5
2022-08-17T07:46:35.632Z,11.4
2022-08-17T07:48:37.131Z,10.2
2022-08-17T07:54:41.479Z,8
2022-08-17T07:56:42.928Z,7.4
2022-08-17T07:58:43.989Z,8.7
2022-08-17T08:00:45.246Z,8.89
2022-08-17T08:02:46.247Z,8.3
2022-08-17T08:05:00.386Z,-25.5
2022-08-17T08:08:49.947Z,-25.7
2022-08-17T08:10:51.270Z,-25.4
2022-08-17T08:12:53.768Z,-25.5
2022-08-17T08:14:53.502Z,-25.6
2022-08-17T08:18:57.680Z,-25.6
2022-08-17T08:20:58.108Z,-25.4
2022-08-17T08:22:59.753Z,-25.7
2022-08-17T08:25:00.736Z,-25.5
2022-08-17T08:27:01.663Z,-25.5
2022-08-17T08:29:03.191Z,-25.3
2022-08-17T08:31:04.907Z,-25.6
2022-08-17T08:33:05.653Z,-25.2
2022-08-17T08:35:07.369Z,-25.4
2022-08-17T08:37:16.267Z,-25.5
2022-08-17T08:39:09.933Z,-25.4
2022-08-17T08:41:10.847Z,-25.4
2022-08-17T08:43:12.311Z,-25.6
2022-08-17T08:45:13.591Z,-25.6
2022-08-17T08:48:05.078Z,-25.5
2022-08-17T08:50:03.747Z,-25.5
2022-08-17T08:52:01.556Z,-25.5
2022-08-17T08:54:02.363Z,-25.7
2022-08-17T08:56:03.801Z,-25.5
2022-08-17T08:58:05.921Z,-25.4
2022-08-17T09:02:08.257Z,-25.4
2022-08-17T09:04:19.887Z,-25.7
2022-08-17T09:06:32.055Z,-25.5
2022-08-17T09:08:11.516Z,-25.5
2022-08-17T09:10:12.612Z,-25.5
2022-08-17T09:14:21.424Z,-25.5
2022-08-17T09:16:17.355Z,-25.6
2022-08-17T09:18:59.557Z,-25.3
2022-08-17T09:20:27.857Z,-25.9
2022-08-17T09:22:21.444Z,-25.7
2022-08-17T09:24:22.285Z,-25.3
2022-08-17T09:30:25.542Z,-25.5
2022-08-17T09:32:26.836Z,-25.5
2022-08-17T09:34:32.174Z,-25.6
2022-08-17T09:36:29.223Z,-25.5
2022-08-17T09:38:32.451Z,-25.8
2022-08-17T09:40:31.768Z,-25.5
2022-08-17T09:44:33.896Z,-25.5
2022-08-17T09:46:34.990Z,-25.5
2022-08-17T09:48:35.980Z,-25.2
2022-08-17T09:50:55.177Z,-25.6
2022-08-17T09:56:45.587Z,-25.5
2022-08-17T10:00:42.449Z,-25.3
2022-08-17T10:02:43.729Z,-25.2
2022-08-17T10:04:45.388Z,-25.6
2022-08-17T10:06:46.700Z,-25.5
2022-08-17T10:08:47.853Z,-25.3
2022-08-17T10:10:52.281Z,-25.7
2022-08-17T10:12:53.111Z,-25.6
2022-08-17T10:14:53.275Z,-25.5
2022-08-17T10:16:53.651Z,-25.4
2022-08-17T10:18:54.753Z,-25.3
2022-08-17T10:20:55.687Z,-25.6
2022-08-17T10:22:56.719Z,-25.5
2022-08-17T10:25:01.830Z,-25.1
2022-08-17T10:26:58.652Z,-25.5
2022-08-17T10:29:00.179Z,-25.5
2022-08-17T10:31:32.933Z,-25.5
2022-08-17T10:33:03.175Z,-25.5
2022-08-17T10:35:04.875Z,-25
2022-08-17T10:37:05.787Z,-25.5
2022-08-17T10:39:06.911Z,-25.7
2022-08-17T10:41:08.302Z,-25.4
2022-08-17T10:43:09.242Z,-25.2
2022-08-17T10:45:10.367Z,-25.6
2022-08-17T10:47:11.276Z,-25.4
2022-08-17T10:49:12.763Z,-25.7
2022-08-17T10:51:14.517Z,-25.6
2022-08-17T10:53:19.831Z,-25.3
2022-08-17T10:55:17.477Z,-25.2
2022-08-17T10:57:18.365Z,-25.3
2022-08-17T10:59:19.567Z,-25.5
2022-08-17T11:01:20.459Z,-25.4
2022-08-17T11:03:21.852Z,-25.3
2022-08-17T11:05:22.679Z,-25.6
2022-08-17T11:11:26.811Z,-25.5
2022-08-17T11:13:27.924Z,-25.4
2022-08-17T11:15:30.765Z,-25.4
2022-08-17T11:19:31.664Z,-25.4
2022-08-17T11:21:33.387Z,-25.5
2022-08-17T11:25:35.038Z,-25.5
2022-08-17T11:27:36.065Z,-25.5
2022-08-17T11:29:37.586Z,-25.6
2022-08-17T11:31:39.792Z,-25.6
2022-08-17T11:33:39.876Z,-25.6
2022-08-17T11:35:41.185Z,-25.5
2022-08-17T11:37:42.495Z,-25.4
2022-08-17T11:39:44.237Z,-25.4
2022-08-17T11:41:45.730Z,-25.5
2022-08-17T11:43:46.896Z,-25.6
2022-08-17T11:45:48.321Z,-25.3
2022-08-17T11:48:02.446Z,-25.3
2022-08-17T11:54:03.721Z,-25.5
2022-08-17T11:55:54.845Z,-25.4
2022-08-17T11:57:56.463Z,-25.7
2022-08-17T11:59:58.692Z,-25.3
2022-08-17T12:01:58.624Z,-25.5
2022-08-17T12:03:59.511Z,-25.5
2022-08-17T12:06:00.769Z,-25.4
2022-08-17T12:08:01.649Z,-25.7
2022-08-17T12:10:03.887Z,-25.3
2022-08-17T12:12:12.246Z,-25.5
2022-08-17T12:14:06.390Z,-25.5
2022-08-17T12:16:07.476Z,-25.3
2022-08-17T12:18:08.395Z,-25.4
2022-08-17T12:20:09.345Z,-25
2022-08-17T12:22:10.108Z,-25.3
2022-08-17T12:24:11.111Z,-25.5
2022-08-17T12:26:12.359Z,-25.5
2022-08-17T12:30:15.213Z,-25.5
2022-08-17T12:32:16.193Z,-25.5
2022-08-17T12:34:17.649Z,-25.5
2022-08-17T12:36:18.855Z,-25.5
2022-08-17T12:40:21.474Z,-25.4
2022-08-17T12:42:22.704Z,-25.4
2022-08-17T12:44:23.853Z,-25.3
2022-08-17T12:50:28.379Z,-25.7
2022-08-17T12:52:28.881Z,-25.2
2022-08-17T12:54:30.125Z,-25.6
2022-08-17T12:56:31.381Z,-25.7
2022-08-17T13:00:33.751Z,-25.6
2022-08-17T13:02:34.842Z,-25.3
2022-08-17T13:04:36.257Z,-25.6
2022-08-17T13:06:37.632Z,-25.3
2022-08-17T13:08:38.684Z,-25.5
2022-08-17T13:10:40.167Z,-25.7
2022-08-17T13:12:41.493Z,-25.6
2022-08-17T13:14:42.516Z,-25.3
2022-08-17T13:16:43.749Z,-25.2
2022-08-17T13:18:45.481Z,-25.4
2022-08-17T13:22:48.576Z,-25.7
2022-08-17T13:24:49.698Z,-25.5
2022-08-17T13:26:50.933Z,-25.2
2022-08-17T13:28:52.059Z,-25.4
2022-08-17T13:35:10.861Z,61.8
2022-08-17T13:36:57.597Z,59.7
2022-08-17T13:38:58.447Z,57.6
2022-08-17T13:40:59.336Z,56.4
2022-08-17T13:43:00.869Z,56
2022-08-17T13:45:02.602Z,52.8
2022-08-17T13:47:03.716Z,50.8
2022-08-17T13:49:04.585Z,48.7
2022-08-17T13:51:07.083Z,46.5
2022-08-17T13:53:08.834Z,47.3
2022-08-17T13:55:09.938Z,45.9
2022-08-17T13:57:11.540Z,5.3
2022-08-17T13:59:12.706Z,41.4
2022-08-17T14:01:13.952Z,39
2022-08-17T14:03:15.160Z,36.9
2022-08-17T14:05:15.940Z,33.9
2022-08-17T14:07:17.576Z,33.2
2022-08-17T14:11:19.673Z,28.6
2022-08-17T14:13:20.688Z,27.7
2022-08-17T14:15:22.041Z,25.4
2022-08-17T14:17:23.553Z,23.8
2022-08-17T14:21:25.761Z,20.9
2022-08-17T14:23:26.945Z,20.1
2022-08-17T14:25:28.549Z,18.4
2022-08-17T14:27:29.815Z,18.29
2022-08-17T14:31:36.894Z,14.4
2022-08-17T14:33:33.280Z,13.9
2022-08-17T14:35:34.786Z,12.9
2022-08-17T14:37:36.345Z,10.4
2022-08-17T14:41:39.175Z,10.3
2022-08-17T14:43:40.407Z,8.8
2022-08-17T14:45:41.502Z,-25.7
2022-08-17T14:47:42.674Z,-25.6
2022-08-17T14:49:47.012Z,-25.7
2022-08-17T14:51:46.310Z,-25.4
2022-08-17T14:53:47.643Z,-25.4
2022-08-17T14:59:54.459Z,-25.3
2022-08-17T15:01:53.683Z,-25.9
2022-08-17T15:03:54.525Z,-25.7
2022-08-17T15:05:55.943Z,-25.7
2022-08-17T15:07:57.009Z,-25.5
2022-08-17T15:09:57.919Z,-25.5
2022-08-17T15:16:01.441Z,-25.5
2022-08-17T15:18:03.043Z,-25.4
2022-08-17T15:20:03.877Z,-25.6
2022-08-17T15:22:04.715Z,-25.4
2022-08-17T15:24:06.051Z,-25.6
2022-08-17T15:26:07.190Z,-25.7
2022-08-17T15:28:08.764Z,-25.6
2022-08-17T15:30:09.769Z,-25.6
2022-08-17T15:30:53.452Z,-25.1
2022-08-17T15:36:58.577Z,-25.5
2022-08-17T15:38:59.512Z,-25.7
2022-08-17T15:41:00.273Z,-25.6
2022-08-17T15:43:01.711Z,-25.4
2022-08-17T15:47:04.776Z,-25.4
2022-08-17T15:49:05.888Z,-25.6
2022-08-17T15:51:07.164Z,-25.6
2022-08-17T15:53:08.243Z,-25.5
2022-08-17T15:57:10.367Z,-25.5
2022-08-17T15:59:11.262Z,-25.4
2022-08-17T16:01:14.571Z,-25.6
2022-08-17T16:03:46.532Z,-25.7
2022-08-17T16:07:17.709Z,-25.7
2022-08-17T16:09:18.905Z,-25.6
2022-08-17T16:13:21.260Z,-25.6
2022-08-17T16:15:22.985Z,-25.5
2022-08-17T16:17:39.325Z,-25.6
2022-08-17T16:19:24.979Z,-25.4
2022-08-17T16:21:26.695Z,-25.4
2022-08-17T16:23:28.075Z,-25.4
2022-08-17T16:25:38.535Z,-25.6
2022-08-17T16:27:30.162Z,-25.4
2022-08-17T16:29:31.606Z,-25.3
2022-08-17T16:31:33.045Z,-25.5
2022-08-17T16:33:34.028Z,-25.5
2022-08-17T16:35:35.606Z,-25.6
2022-08-17T16:37:36.575Z,-25.6
2022-08-17T16:39:37.400Z,-25.5
2022-08-17T16:41:39.076Z,-25.7
2022-08-17T16:43:39.950Z,-25.9
2022-08-17T16:47:41.617Z,-25.4
2022-08-17T16:49:43.217Z,-25.4
2022-08-17T16:51:44.323Z,-25.6
2022-08-17T16:53:45.623Z,-25.5
2022-08-17T16:55:47.131Z,-25.6
2022-08-17T16:57:50.520Z,-25.7
2022-08-17T16:59:48.779Z,-25.8
2022-08-17T17:01:49.978Z,-25.6
2022-08-17T17:03:53.114Z,-25.7
2022-08-17T17:05:55.211Z,-25.8
2022-08-17T17:07:52.813Z,-25.5
2022-08-17T17:11:54.945Z,-25.5
2022-08-17T17:13:56.519Z,-25.3
2022-08-17T17:17:59.925Z,-25.7
2022-08-17T17:20:01.438Z,-25.5
2022-08-17T17:22:02.524Z,-25.4
2022-08-17T17:24:04.257Z,-25.7
2022-08-17T17:28:06.156Z,-25.5
2022-08-17T17:30:07.437Z,-25.5
2022-08-17T17:32:09.110Z,-25.5
2022-08-17T17:34:10.366Z,-25.7
2022-08-17T17:38:12.820Z,-25.7
2022-08-17T17:40:14.633Z,-25.6
2022-08-17T17:42:16.589Z,-25.4
2022-08-17T17:44:17.925Z,-25.5
2022-08-17T17:48:20.089Z,-25.5
2022-08-17T17:50:21.060Z,-25.5
2022-08-17T17:54:23.705Z,-25.5
2022-08-17T17:56:40.410Z,-25.6
2022-08-17T17:58:26.513Z,-25.8
2022-08-17T18:00:27.370Z,-25.3
2022-08-17T18:02:29.340Z,-25.5
2022-08-17T18:06:31.767Z,-25.6
2022-08-17T18:10:34.416Z,-25.6
2022-08-17T18:12:36.216Z,-25.6
2022-08-17T18:14:37.099Z,-25.6
2022-08-17T18:16:38.172Z,-25.5
2022-08-17T18:22:41.370Z,-25.6
2022-08-17T18:24:43.213Z,-25.6
2022-08-17T18:26:45.294Z,-25.7
2022-08-17T18:28:46.483Z,-25.7
2022-08-17T18:30:47.784Z,-25.6
2022-08-17T18:32:49.191Z,-25.6
2022-08-17T18:34:50.739Z,-25.8
2022-08-17T18:36:52.235Z,-25.4
2022-08-17T18:38:53.831Z,-25.7
2022-08-17T18:40:54.712Z,-25.4
2022-08-17T18:42:56.283Z,-25.5
2022-08-17T18:49:01.002Z,-25.9
2022-08-17T18:51:01.810Z,-25.9
2022-08-17T18:53:07.104Z,-25.6
2022-08-17T18:55:04.440Z,-25.6
2022-08-17T18:57:06.107Z,-25.4
2022-08-17T18:59:07.879Z,-25.6
2022-08-17T19:01:09.397Z,-25.8
2022-08-17T19:05:11.377Z,-25.4
2022-08-17T19:07:12.209Z,-25.5
2022-08-17T19:09:13.250Z,-25.8
2022-08-17T19:11:14.675Z,-25.9
2022-08-17T19:13:15.757Z,-25.5
2022-08-17T19:15:16.788Z,-25.6
2022-08-17T19:21:19.862Z,-25.4
2022-08-17T19:23:21.625Z,-25.6
2022-08-17T19:25:22.684Z,-25.6
2022-08-17T19:27:23.745Z,-25.6
2022-08-17T19:29:24.948Z,-25.8
2022-08-17T19:31:25.846Z,-25.9
2022-08-17T19:35:28.600Z,-25.6
2022-08-17T19:37:29.486Z,-25.7
2022-08-17T19:39:38.096Z,-25.5
2022-08-17T19:41:32.033Z,-25.7
2022-08-17T19:43:33.102Z,-25.6
2022-08-17T19:47:51.447Z,-25.6
2022-08-17T19:51:39.028Z,-25.6
2022-08-17T19:54:02.027Z,-25.5
2022-08-17T19:55:41.663Z,-25.7
2022-08-17T19:57:43.039Z,-25.6
2022-08-17T20:01:45.721Z,-25.8
2022-08-17T20:03:47.261Z,-25.4
2022-08-17T20:06:11.246Z,-25.4
2022-08-17T20:07:49.660Z,-25.5
2022-08-17T20:09:51.166Z,-25.6
2022-08-17T20:11:52.304Z,-25.7
2022-08-17T20:13:53.782Z,-25.6
2022-08-17T20:15:55.447Z,-25.7
2022-08-17T20:17:56.492Z,-25.6
2022-08-17T20:19:57.820Z,-25.7
2022-08-17T20:21:58.898Z,-25.6
2022-08-17T20:23:59.883Z,-25.7
2022-08-17T20:26:01.607Z,-25.7
2022-08-17T20:28:06.135Z,-25.7
2022-08-17T20:30:04.642Z,-25.6
2022-08-17T20:32:06.153Z,-25.8
2022-08-17T20:34:07.692Z,-25.4
2022-08-17T20:36:09.486Z,-25.4
2022-08-17T20:38:11.031Z,-25.5
2022-08-17T20:42:13.885Z,-25.5
2022-08-17T20:44:15.510Z,-25.5
2022-08-17T20:46:17.385Z,-25.5
2022-08-17T20:48:36.690Z,-25.6
2022-08-17T20:50:20.350Z,-25.4
2022-08-17T20:52:21.799Z,-25.7
2022-08-17T20:54:23.228Z,-25.7
2022-08-17T20:56:25.049Z,-25.5
2022-08-17T20:58:29.891Z,-25.5
2022-08-17T21:00:28.111Z,-25.6
2022-08-17T21:02:29.522Z,-25.7
2022-08-17T21:04:30.553Z,-25.7
2022-08-17T21:06:31.870Z,-25.4
2022-08-17T21:08:33.342Z,-25.4
2022-08-17T21:12:36.093Z,-25.6
2022-08-17T21:14:37.633Z,-25.8
2022-08-17T21:16:39.195Z,-25.8
2022-08-17T21:18:40.144Z,-25.5
2022-08-17T21:20:41.052Z,-25.8
2022-08-17T21:22:42.565Z,-25.7
2022-08-17T21:24:44.365Z,-25.8
2022-08-17T21:26:50.245Z,-25.6
2022-08-17T21:29:00.093Z,-25.7
2022-08-17T21:30:48.252Z,-25.8
2022-08-17T21:32:49.110Z,-25.7
2022-08-17T21:34:50.303Z,-25.4
2022-08-17T21:36:52.353Z,-25.7
2022-08-17T21:38:57.082Z,-25.7
2022-08-17T21:44:58.149Z,-25.7
2022-08-17T21:46:59.691Z,-25.4
2022-08-17T21:49:01.549Z,-25.6
2022-08-17T21:51:03.207Z,-25.6
2022-08-17T21:53:03.989Z,-25.6
2022-08-17T21:55:05.150Z,-25.7
2022-08-17T21:59:07.451Z,-25.5
2022-08-17T22:01:09.305Z,-25.6
2022-08-17T22:03:10.800Z,-25.6
2022-08-17T22:05:12.525Z,-25.3
2022-08-17T22:09:15.774Z,-25.5
2022-08-17T22:11:16.702Z,-25.4
2022-08-17T22:13:17.870Z,-25.8
2022-08-17T22:15:18.876Z,-25.5
2022-08-17T22:18:03.702Z,-25.6
2022-08-17T22:20:05.555Z,-25.7
2022-08-17T22:22:06.839Z,-25.7
2022-08-17T22:24:08.449Z,-25.5
2022-08-17T22:26:12.588Z,-25.6
2022-08-17T22:28:11.330Z,-25.4
2022-08-17T22:30:12.424Z,-25.7
2022-08-17T22:32:13.599Z,-25.7
2022-08-17T22:34:15.358Z,-25.7
2022-08-17T22:36:17.236Z,-25.5
2022-08-17T22:38:18.849Z,-25.7
2022-08-17T22:40:20.694Z,-25.7
2022-08-17T22:42:22.213Z,-25.5
2022-08-17T22:44:23.822Z,-25.5
2022-08-17T22:46:25.469Z,-25.4
2022-08-17T22:48:27.530Z,-25.6
2022-08-17T22:50:28.793Z,-25.5
2022-08-17T22:52:32.105Z,-25.7
2022-08-17T22:54:31.471Z,-25.7
2022-08-17T22:56:32.345Z,-25.5
2022-08-17T22:58:34.176Z,-25.6
2022-08-17T23:00:35.630Z,-25.6
2022-08-17T23:02:39.249Z,-25.5
2022-08-17T23:04:38.503Z,-25.6
2022-08-17T23:06:39.821Z,-25.7
2022-08-17T23:08:41.418Z,-25.8
2022-08-17T23:10:42.582Z,-25.6
2022-08-17T23:12:44.281Z,-25.8
2022-08-17T23:14:45.212Z,-25.6
2022-08-17T23:16:46.890Z,-25.6
2022-08-17T23:18:47.836Z,-25.7
2022-08-17T23:20:48.881Z,-25.7
2022-08-17T23:22:51.659Z,-25.7
2022-08-17T23:24:51.800Z,-25.7
2022-08-17T23:26:53.331Z,-25.6
2022-08-17T23:28:55.086Z,-25.6
2022-08-17T23:30:56.258Z,-25.5
2022-08-17T23:32:57.190Z,-25.3
2022-08-17T23:34:58.110Z,-25.7
2022-08-17T23:36:59.599Z,-25.7
2022-08-17T23:39:01.242Z,-25.8
2022-08-17T23:41:02.118Z,-25.9
2022-08-17T23:47:06.869Z,-25.7
2022-08-17T23:49:07.923Z,-25.5
2022-08-17T23:51:09.357Z,-25.4
2022-08-17T23:53:10.240Z,-25.6
2022-08-17T23:55:11.419Z,-25.5
2022-08-17T23:57:12.451Z,-25.9
